createdAt,value
2023-03-22T00:02:14.234Z,75.82
2023-03-22T00:04:45.936Z,76.34
2023-03-22T00:07:17.137Z,75.61
2023-03-22T00:09:48.252Z,75.32
2023-03-22T00:12:23.531Z,76.04
2023-03-22T00:14:55.873Z,75.94
2023-03-22T00:17:31.388Z,76.16
2023-03-22T00:20:10.279Z,76.11
2023-03-22T00:22:41.510Z,76.12
2023-03-22T00:25:12.734Z,76.45
2023-03-22T00:27:42.820Z,76.51
2023-03-22T00:30:14.043Z,76.69
2023-03-22T00:32:44.377Z,77.20
2023-03-22T00:35:16.757Z,77.35
2023-03-22T00:37:47.405Z,77.17
2023-03-22T00:40:18.415Z,77.61
2023-03-22T00:42:50.444Z,77.68
2023-03-22T00:45:25.201Z,76.80
2023-03-22T00:47:57.050Z,76.85
2023-03-22T00:50:28.804Z,77.64
2023-03-22T00:53:01.897Z,77.52
2023-03-22T00:55:35.460Z,77.40
2023-03-22T00:58:07.379Z,77.31
2023-03-22T01:00:39.031Z,77.70
2023-03-22T01:03:10.138Z,77.64
2023-03-22T01:05:45.157Z,77.43
2023-03-22T01:08:19.455Z,77.15
2023-03-22T01:10:53.121Z,77.24
2023-03-22T01:13:24.224Z,76.86
2023-03-22T01:15:56.033Z,76.98
2023-03-22T01:18:28.796Z,77.20
2023-03-22T01:20:59.934Z,74.85
2023-03-22T01:23:31.643Z,75.16
2023-03-22T01:26:03.649Z,75.98
2023-03-22T01:28:36.951Z,76.79
2023-03-22T01:31:08.770Z,77.84
2023-03-22T01:33:40.373Z,77.28
2023-03-22T01:36:10.718Z,75.47
2023-03-22T01:38:43.328Z,76.72
2023-03-22T01:41:15.582Z,77.58
2023-03-22T01:43:47.740Z,77.80
2023-03-22T01:46:18.391Z,77.30
2023-03-22T01:48:50.725Z,77.42
2023-03-22T01:51:26.882Z,75.68
2023-03-22T01:54:42.652Z,75.63
2023-03-22T01:57:52.719Z,75.37
2023-03-22T02:00:34.490Z,75.32
2023-03-22T02:03:20.793Z,75.45
2023-03-22T02:05:52.555Z,75.61
2023-03-22T02:08:28.072Z,75.17
2023-03-22T02:11:04.804Z,76.01
2023-03-22T02:14:05.162Z,76.03
2023-03-22T02:17:36.538Z,76.02
2023-03-22T02:20:46.498Z,76.23
2023-03-22T02:23:57.566Z,75.67
2023-03-22T02:26:49.207Z,75.96
2023-03-22T02:29:47.466Z,75.90
2023-03-22T02:32:39.491Z,76.38
2023-03-22T02:35:26.203Z,76.11
2023-03-22T02:38:29.901Z,76.36
2023-03-22T02:41:44.225Z,75.95
2023-03-22T02:44:36.626Z,75.46
2023-03-22T02:47:28.369Z,75.40
2023-03-22T02:50:37.478Z,75.10
2023-03-22T02:53:17.534Z,74.53
2023-03-22T02:56:15.138Z,75.33
2023-03-22T02:59:02.720Z,75.50
2023-03-22T03:01:41.958Z,76.14
2023-03-22T03:04:42.841Z,76.01
2023-03-22T03:07:20.422Z,76.19
2023-03-22T03:09:52.927Z,77.19
2023-03-22T03:12:29.659Z,76.87
2023-03-22T03:15:00.514Z,77.05
2023-03-22T03:17:41.199Z,77.12
2023-03-22T03:20:33.417Z,77.36
2023-03-22T03:23:28.136Z,77.47
2023-03-22T03:26:05.539Z,77.42
2023-03-22T03:28:50.908Z,77.36
2023-03-22T03:31:56.791Z,77.43
2023-03-22T03:34:52.774Z,77.17
2023-03-22T03:37:36.097Z,76.85
2023-03-22T03:40:28.050Z,76.77
2023-03-22T03:43:04.022Z,76.85
2023-03-22T03:45:40.266Z,77.11
2023-03-22T03:48:21.286Z,76.45
2023-03-22T03:50:56.166Z,76.51
2023-03-22T03:53:37.986Z,76.58
2023-03-22T03:56:14.983Z,75.96
2023-03-22T03:58:48.373Z,76.00
2023-03-22T04:01:23.905Z,76.29
2023-03-22T04:04:02.333Z,75.87
2023-03-22T04:06:50.171Z,76.38
2023-03-22T04:09:28.773Z,75.96
2023-03-22T04:12:11.400Z,76.38
2023-03-22T04:14:46.402Z,76.28
2023-03-22T04:17:25.213Z,76.39
2023-03-22T04:20:00.846Z,76.53
2023-03-22T04:22:35.944Z,76.34
2023-03-22T04:25:15.675Z,76.69
2023-03-22T04:27:58.655Z,76.81
2023-03-22T04:30:29.481Z,76.86
2023-03-22T04:33:21.845Z,77.03
2023-03-22T04:36:22.683Z,76.86
2023-03-22T04:39:18.401Z,76.89
2023-03-22T04:42:00.704Z,77.11
2023-03-22T04:44:36.139Z,76.54
2023-03-22T04:47:08.226Z,77.12
2023-03-22T04:49:39.445Z,77.29
2023-03-22T04:52:12.457Z,78.07
2023-03-22T04:54:52.358Z,78.26
2023-03-22T04:57:27.774Z,78.42
2023-03-22T05:00:01.848Z,78.45
2023-03-22T05:02:33.554Z,78.32
2023-03-22T05:05:04.542Z,78.90
2023-03-22T05:07:40.685Z,78.98
2023-03-22T05:10:13.256Z,79.11
2023-03-22T05:12:52.273Z,79.04
2023-03-22T05:15:41.951Z,78.72
2023-03-22T05:18:15.811Z,78.88
2023-03-22T05:20:47.733Z,78.77
2023-03-22T05:23:23.949Z,78.87
2023-03-22T05:26:04.083Z,78.72
2023-03-22T05:28:35.683Z,78.91
2023-03-22T05:31:23.063Z,79.02
2023-03-22T05:34:01.556Z,78.86
2023-03-22T05:36:39.314Z,78.74
2023-03-22T05:39:27.296Z,79.47
2023-03-22T05:42:03.042Z,78.71
2023-03-22T05:44:34.879Z,79.28
2023-03-22T05:47:15.924Z,79.30
2023-03-22T05:50:04.225Z,79.25
2023-03-22T05:52:38.833Z,79.36
2023-03-22T05:55:35.171Z,79.60
2023-03-22T05:58:08.534Z,79.66
2023-03-22T06:00:45.025Z,78.99
2023-03-22T06:03:27.473Z,79.42
2023-03-22T06:06:12.886Z,79.64
2023-03-22T06:09:15.892Z,79.54
2023-03-22T06:11:52.643Z,79.29
2023-03-22T06:14:26.612Z,78.95
2023-03-22T06:17:21.607Z,78.90
2023-03-22T06:19:59.346Z,78.72
2023-03-22T06:22:32.028Z,78.65
2023-03-22T06:25:23.803Z,78.44
2023-03-22T06:28:00.856Z,78.54
2023-03-22T06:30:34.804Z,78.20
2023-03-22T06:33:25.024Z,78.04
2023-03-22T06:36:07.614Z,78.30
2023-03-22T06:39:06.513Z,78.36
2023-03-22T06:41:39.760Z,78.33
2023-03-22T06:44:11.263Z,78.27
2023-03-22T06:47:03.399Z,78.38
2023-03-22T06:49:56.889Z,78.22
2023-03-22T06:52:42.208Z,78.07
2023-03-22T06:55:14.984Z,78.78
2023-03-22T06:57:48.340Z,78.87
2023-03-22T07:00:20.346Z,79.05
2023-03-22T07:02:52.814Z,78.83
2023-03-22T07:05:35.042Z,78.88
2023-03-22T07:08:07.838Z,78.95
2023-03-22T07:10:43.727Z,78.50
2023-03-22T07:13:15.618Z,78.16
2023-03-22T07:15:47.730Z,78.17
2023-03-22T07:18:37.944Z,78.48
2023-03-22T07:21:08.979Z,78.31
2023-03-22T07:23:44.616Z,78.73
2023-03-22T07:26:19.346Z,78.19
2023-03-22T07:28:53.784Z,78.54
2023-03-22T07:31:33.667Z,78.30
2023-03-22T07:34:06.666Z,78.14
2023-03-22T07:36:58.496Z,77.97
2023-03-22T07:39:31.793Z,77.88
2023-03-22T07:42:05.392Z,77.97
2023-03-22T07:44:56.073Z,78.01
2023-03-22T07:47:40.437Z,78.28
2023-03-22T07:50:38.486Z,78.31
2023-03-22T07:53:12.916Z,78.34
2023-03-22T07:55:47.000Z,78.33
2023-03-22T07:58:18.237Z,78.02
2023-03-22T08:00:51.236Z,78.00
2023-03-22T08:03:57.648Z,77.78
2023-03-22T08:06:48.080Z,77.38
2023-03-22T08:09:20.304Z,77.98
2023-03-22T08:11:54.739Z,77.90
2023-03-22T08:14:35.925Z,77.49
2023-03-22T08:17:10.081Z,77.58
2023-03-22T08:19:41.207Z,77.78
2023-03-22T08:22:20.313Z,77.76
2023-03-22T08:25:10.611Z,78.31
2023-03-22T08:27:44.697Z,78.06
2023-03-22T08:30:21.341Z,78.01
2023-03-22T08:32:52.342Z,78.03
2023-03-22T08:35:27.436Z,77.99
2023-03-22T08:37:58.732Z,77.97
2023-03-22T08:40:43.029Z,78.94
2023-03-22T08:43:18.433Z,78.56
2023-03-22T08:45:50.936Z,79.20
2023-03-22T08:48:24.279Z,78.81
2023-03-22T08:51:11.408Z,78.44
2023-03-22T08:54:06.460Z,78.59
2023-03-22T08:57:13.024Z,78.43
2023-03-22T08:59:55.678Z,78.32
2023-03-22T09:02:42.664Z,78.33
2023-03-22T09:05:15.883Z,78.12
2023-03-22T09:07:47.484Z,77.95
2023-03-22T09:10:31.430Z,78.28
2023-03-22T09:13:03.296Z,77.92
2023-03-22T09:15:34.526Z,78.06
2023-03-22T09:18:22.194Z,78.38
2023-03-22T09:21:10.347Z,78.47
2023-03-22T09:23:54.345Z,78.55
2023-03-22T09:26:30.787Z,78.46
2023-03-22T09:29:02.902Z,79.26
2023-03-22T09:31:35.311Z,78.90
2023-03-22T09:34:19.981Z,79.04
2023-03-22T09:36:51.803Z,79.10
2023-03-22T09:39:33.148Z,79.24
2023-03-22T09:42:16.721Z,78.90
2023-03-22T09:44:48.502Z,78.88
2023-03-22T09:47:44.632Z,79.05
2023-03-22T09:50:22.971Z,79.09
2023-03-22T09:52:56.987Z,79.05
2023-03-22T09:56:06.340Z,79.06
2023-03-22T09:58:53.387Z,79.21
2023-03-22T10:02:06.350Z,79.31
2023-03-22T10:05:04.807Z,79.64
2023-03-22T10:08:15.217Z,79.61
2023-03-22T10:10:46.426Z,79.61
2023-03-22T10:13:33.875Z,79.93
2023-03-22T10:16:16.938Z,79.52
2023-03-22T10:18:54.459Z,79.44
2023-03-22T10:21:26.370Z,79.78
2023-03-22T10:24:32.582Z,79.61
2023-03-22T10:27:04.897Z,79.78
2023-03-22T10:29:45.002Z,80.10
2023-03-22T10:32:42.815Z,80.00
2023-03-22T10:35:23.305Z,79.30
2023-03-22T10:37:58.660Z,79.07
2023-03-22T10:40:33.736Z,79.04
2023-03-22T10:43:42.674Z,78.86
2023-03-22T10:46:23.984Z,78.78
2023-03-22T10:49:08.868Z,77.97
2023-03-22T10:51:59.238Z,78.06
2023-03-22T10:54:31.626Z,77.80
2023-03-22T10:57:02.344Z,77.97
2023-03-22T10:59:57.489Z,77.82
2023-03-22T11:02:32.856Z,77.74
2023-03-22T11:05:20.674Z,77.99
2023-03-22T11:08:00.391Z,78.51
2023-03-22T11:10:39.093Z,78.49
2023-03-22T11:13:10.206Z,77.60
2023-03-22T11:16:00.306Z,78.38
2023-03-22T11:18:37.472Z,78.57
2023-03-22T11:21:14.961Z,78.82
2023-03-22T11:24:15.873Z,78.53
2023-03-22T11:27:22.438Z,78.46
2023-03-22T11:29:55.911Z,78.63
2023-03-22T11:32:39.389Z,79.07
2023-03-22T11:35:22.823Z,79.24
2023-03-22T11:37:57.086Z,79.36
2023-03-22T11:40:39.552Z,78.87
2023-03-22T11:43:22.338Z,78.70
2023-03-22T11:45:58.118Z,78.15
2023-03-22T11:48:32.404Z,77.41
2023-03-22T11:51:12.190Z,77.63
2023-03-22T11:53:49.227Z,78.46
2023-03-22T11:56:24.981Z,78.20
2023-03-22T11:59:01.481Z,78.32
2023-03-22T12:01:55.570Z,79.98
2023-03-22T12:04:30.417Z,79.31
2023-03-22T12:07:02.414Z,78.98
2023-03-22T12:09:45.958Z,80.46
2023-03-22T12:12:24.522Z,80.94
2023-03-22T12:15:22.521Z,80.69
2023-03-22T12:18:15.001Z,80.49
2023-03-22T12:20:59.408Z,80.47
2023-03-22T12:23:39.730Z,79.41
2023-03-22T12:26:26.402Z,79.70
2023-03-22T12:29:09.651Z,79.78
2023-03-22T12:32:05.564Z,78.38
2023-03-22T12:34:48.787Z,78.63
2023-03-22T12:37:26.785Z,77.73
2023-03-22T12:40:36.370Z,79.41
2023-03-22T12:43:26.630Z,76.35
2023-03-22T12:46:14.073Z,76.61
2023-03-22T12:49:07.345Z,76.53
2023-03-22T12:51:42.790Z,76.17
2023-03-22T12:54:18.399Z,75.58
2023-03-22T12:56:54.112Z,74.63
2023-03-22T12:59:39.424Z,74.56
2023-03-22T13:02:32.856Z,77.13
2023-03-22T13:05:09.029Z,74.58
2023-03-22T13:07:57.908Z,75.96
2023-03-22T13:11:32.845Z,73.93
2023-03-22T13:14:05.196Z,75.62
2023-03-22T13:17:22.844Z,76.70
2023-03-22T13:20:14.632Z,76.56
2023-03-22T13:22:53.562Z,76.36
2023-03-22T13:25:43.238Z,76.89
2023-03-22T13:28:31.068Z,76.18
2023-03-22T13:31:03.109Z,76.71
2023-03-22T13:33:42.913Z,77.22
2023-03-22T13:36:31.116Z,76.73
2023-03-22T13:39:10.379Z,76.81
2023-03-22T13:42:35.052Z,76.46
2023-03-22T13:45:10.301Z,75.92
2023-03-22T13:47:47.818Z,76.34
2023-03-22T13:50:30.522Z,76.61
2023-03-22T13:53:10.860Z,77.31
2023-03-22T13:56:04.451Z,77.29
2023-03-22T13:58:50.660Z,77.11
2023-03-22T14:01:24.307Z,77.10
2023-03-22T14:04:03.419Z,77.06
2023-03-22T14:06:47.699Z,77.71
2023-03-22T14:09:36.088Z,77.83
2023-03-22T14:12:25.130Z,78.23
2023-03-22T14:15:05.320Z,78.79
2023-03-22T14:17:50.404Z,78.89
2023-03-22T14:20:25.096Z,78.66
